Terminal Aerodrome Forecast
Issued by NWS Jacksonville, FL

Home | Current Version | Previous Version | Text Only | Print | Product List | Glossary On
Versions: 1 2 3 4 5 6 7 8 9 10 11 12 13 14 15 16 17 18 19 20 21 22 23 24 25
000
FTUS42 KJAX 221908 AAB
TAFGNV
TAF AMD
KGNV 221908Z 2219/2318 26006KT 3SM TSRA BR SCT035CB BKN070 OVC120
     FM221935 24008KT 6SM -SHRA BR VCTS BKN060CB BKN100 BKN250
     FM222300 24005KT P6SM VCSH BKN100 OVC250
     FM230200 00000KT P6SM BKN150 BKN250
     FM231400 24005KT P6SM SCT025 SCT150 SCT250=

USA.gov is the U.S. government's official web portal to all federal, state and local government web resources and services.